sensor_id;sensor_type;location;lat;lon;timestamp;pressure;altitude;pressure_sealevel;temperature;humidity
54314;BME280;50746;52.490;13.320;2023-07-02T00:01:47;99750.0;;;36.8;33.9
54314;BME280;50746;52.490;13.320;2023-07-02T00:04:46;99760.0;;;36.7;34.0
54314;BME280;50746;52.490;13.320;2023-07-02T00:05:46;99760.0;;;36.8;33.9
54314;BME280;50746;52.490;13.320;2023-07-02T00:06:46;99760.0;;;36.7;34.1
54314;BME280;50746;52.490;13.320;2023-07-02T00:07:46;99760.0;;;36.6;34.1
54314;BME280;50746;52.490;13.320;2023-07-02T00:08:46;99760.0;;;36.5;34.2
54314;BME280;50746;52.490;13.320;2023-07-02T00:09:46;99770.0;;;36.6;34.3
54314;BME280;50746;52.490;13.320;2023-07-02T00:16:46;99770.0;;;36.7;34.1
54314;BME280;50746;52.490;13.320;2023-07-02T00:17:46;99770.0;;;36.6;34.2
54314;BME280;50746;52.490;13.320;2023-07-02T00:20:46;99770.0;;;36.7;34.3
54314;BME280;50746;52.490;13.320;2023-07-02T00:22:46;99760.0;;;36.8;34.0
54314;BME280;50746;52.490;13.320;2023-07-02T00:23:46;99760.0;;;36.7;34.1
54314;BME280;50746;52.490;13.320;2023-07-02T00:25:46;99770.0;;;36.6;34.2
54314;BME280;50746;52.490;13.320;2023-07-02T00:26:46;99760.0;;;36.5;34.4
54314;BME280;50746;52.490;13.320;2023-07-02T00:27:46;99760.0;;;36.3;34.6
54314;BME280;50746;52.490;13.320;2023-07-02T00:31:46;99770.0;;;36.4;34.6
54314;BME280;50746;52.490;13.320;2023-07-02T00:33:46;99770.0;;;36.5;34.4
54314;BME280;50746;52.490;13.320;2023-07-02T00:36:46;99770.0;;;36.6;34.3
54314;BME280;50746;52.490;13.320;2023-07-02T00:37:46;99780.0;;;36.5;34.5
54314;BME280;50746;52.490;13.320;2023-07-02T00:39:46;99780.0;;;36.4;34.5
54314;BME280;50746;52.490;13.320;2023-07-02T00:41:46;99780.0;;;36.5;34.6
54314;BME280;50746;52.490;13.320;2023-07-02T00:45:46;99780.0;;;36.6;34.4
54314;BME280;50746;52.490;13.320;2023-07-02T00:48:47;99780.0;;;36.5;34.4
54314;BME280;50746;52.490;13.320;2023-07-02T00:57:46;99780.0;;;36.4;34.7
54314;BME280;50746;52.490;13.320;2023-07-02T01:03:50;99780.0;;;36.5;34.8
54314;BME280;50746;52.490;13.320;2023-07-02T01:07:46;99780.0;;;36.3;34.8
54314;BME280;50746;52.490;13.320;2023-07-02T01:08:47;99780.0;;;36.4;34.8
54314;BME280;50746;52.490;13.320;2023-07-02T01:09:46;99790.0;;;36.5;34.8
54314;BME280;50746;52.490;13.320;2023-07-02T01:17:46;99790.0;;;36.4;34.8
54314;BME280;50746;52.490;13.320;2023-07-02T01:18:46;99790.0;;;36.5;34.8
54314;BME280;50746;52.490;13.320;2023-07-02T01:26:46;99790.0;;;36.6;34.4
54314;BME280;50746;52.490;13.320;2023-07-02T01:27:46;99790.0;;;36.4;34.8
54314;BME280;50746;52.490;13.320;2023-07-02T01:29:46;99790.0;;;36.5;34.6
54314;BME280;50746;52.490;13.320;2023-07-02T01:35:46;99800.0;;;36.6;34.4
54314;BME280;50746;52.490;13.320;2023-07-02T01:36:46;99790.0;;;36.5;34.5
54314;BME280;50746;52.490;13.320;2023-07-02T01:39:46;99790.0;;;36.6;34.6
54314;BME280;50746;52.490;13.320;2023-07-02T01:40:46;99790.0;;;36.5;34.6
54314;BME280;50746;52.490;13.320;2023-07-02T01:47:46;99800.0;;;36.3;35.0
54314;BME280;50746;52.490;13.320;2023-07-02T01:49:46;99790.0;;;36.4;34.9
54314;BME280;50746;52.490;13.320;2023-07-02T01:50:46;99800.0;;;36.3;35.0
54314;BME280;50746;52.490;13.320;2023-07-02T01:51:49;99800.0;;;36.4;34.9
54314;BME280;50746;52.490;13.320;2023-07-02T01:54:46;99800.0;;;36.3;34.8
54314;BME280;50746;52.490;13.320;2023-07-02T01:55:46;99810.0;;;36.4;34.9
54314;BME280;50746;52.490;13.320;2023-07-02T01:56:46;99810.0;;;36.2;35.0
54314;BME280;50746;52.490;13.320;2023-07-02T02:01:46;99810.0;;;36.3;34.9
54314;BME280;50746;52.490;13.320;2023-07-02T02:03:46;99800.0;;;36.2;35.1
54314;BME280;50746;52.490;13.320;2023-07-02T02:04:46;99800.0;;;36.3;35.0
54314;BME280;50746;52.490;13.320;2023-07-02T02:07:46;99800.0;;;36.2;35.1
54314;BME280;50746;52.490;13.320;2023-07-02T02:11:48;99810.0;;;36.3;35.0
54314;BME280;50746;52.490;13.320;2023-07-02T02:13:46;99800.0;;;36.4;34.8
54314;BME280;50746;52.490;13.320;2023-07-02T02:16:46;99800.0;;;36.3;34.8
54314;BME280;50746;52.490;13.320;2023-07-02T02:17:46;99800.0;;;36.2;35.1
54314;BME280;50746;52.490;13.320;2023-07-02T02:25:46;99820.0;;;36.3;34.9
54314;BME280;50746;52.490;13.320;2023-07-02T02:27:46;99810.0;;;36.2;35.1
54314;BME280;50746;52.490;13.320;2023-07-02T02:30:46;99820.0;;;36.3;34.9
54314;BME280;50746;52.490;13.320;2023-07-02T02:37:46;99830.0;;;36.2;34.9
54314;BME280;50746;52.490;13.320;2023-07-02T02:38:46;99820.0;;;36.3;34.9
54314;BME280;50746;52.490;13.320;2023-07-02T02:42:46;99810.0;;;36.4;34.8
54314;BME280;50746;52.490;13.320;2023-07-02T02:47:46;99820.0;;;36.3;34.8
54314;BME280;50746;52.490;13.320;2023-07-02T02:48:46;99820.0;;;36.2;34.9
54314;BME280;50746;52.490;13.320;2023-07-02T02:49:46;99820.0;;;36.3;34.9
54314;BME280;50746;52.490;13.320;2023-07-02T02:51:46;99820.0;;;36.4;34.7
54314;BME280;50746;52.490;13.320;2023-07-02T02:57:46;99830.0;;;36.3;34.7
54314;BME280;50746;52.490;13.320;2023-07-02T02:58:46;99830.0;;;36.4;34.6
54314;BME280;50746;52.490;13.320;2023-07-02T03:00:46;99830.0;;;36.5;34.5
54314;BME280;50746;52.490;13.320;2023-07-02T03:02:46;99830.0;;;36.6;34.4
54314;BME280;50746;52.490;13.320;2023-07-02T03:03:46;99830.0;;;36.5;34.4
54314;BME280;50746;52.490;13.320;2023-07-02T03:07:46;99830.0;;;36.4;34.6
54314;BME280;50746;52.490;13.320;2023-07-02T03:09:46;99830.0;;;36.5;34.4
54314;BME280;50746;52.490;13.320;2023-07-02T03:10:46;99830.0;;;36.6;34.3
54314;BME280;50746;52.490;13.320;2023-07-02T03:14:46;99830.0;;;36.7;34.2
54314;BME280;50746;52.490;13.320;2023-07-02T03:17:46;99830.0;;;36.5;34.3
54314;BME280;50746;52.490;13.320;2023-07-02T03:18:46;99830.0;;;36.6;34.3
54314;BME280;50746;52.490;13.320;2023-07-02T03:21:46;99830.0;;;36.7;34.2
54314;BME280;50746;52.490;13.320;2023-07-02T03:23:46;99830.0;;;37.0;33.8
54314;BME280;50746;52.490;13.320;2023-07-02T03:26:46;99830.0;;;36.8;33.9
54314;BME280;50746;52.490;13.320;2023-07-02T03:27:46;99830.0;;;36.7;34.1
54314;BME280;50746;52.490;13.320;2023-07-02T03:28:46;99820.0;;;36.6;34.1
54314;BME280;50746;52.490;13.320;2023-07-02T03:30:46;99830.0;;;36.7;34.1
54314;BME280;50746;52.490;13.320;2023-07-02T03:33:46;99830.0;;;36.6;34.1
54314;BME280;50746;52.490;13.320;2023-07-02T03:37:46;99830.0;;;36.5;34.2
54314;BME280;50746;52.490;13.320;2023-07-02T03:40:46;99830.0;;;36.6;34.2
54314;BME280;50746;52.490;13.320;2023-07-02T03:44:46;99830.0;;;36.5;34.2
54314;BME280;50746;52.490;13.320;2023-07-02T03:46:46;99850.0;;;36.4;34.4
54314;BME280;50746;52.490;13.320;2023-07-02T03:49:47;99830.0;;;36.5;34.3
54314;BME280;50746;52.490;13.320;2023-07-02T03:51:46;99840.0;;;36.4;34.4
54314;BME280;50746;52.490;13.320;2023-07-02T03:53:46;99840.0;;;36.5;34.3
54314;BME280;50746;52.490;13.320;2023-07-02T03:54:46;99840.0;;;36.4;34.4
54314;BME280;50746;52.490;13.320;2023-07-02T03:57:46;99850.0;;;36.3;34.6
54314;BME280;50746;52.490;13.320;2023-07-02T03:59:46;99850.0;;;36.4;34.5
54314;BME280;50746;52.490;13.320;2023-07-02T04:07:46;99860.0;;;36.3;34.5
54314;BME280;50746;52.490;13.320;2023-07-02T04:09:46;99860.0;;;36.4;34.4
54314;BME280;50746;52.490;13.320;2023-07-02T04:12:46;99860.0;;;36.5;34.3
54314;BME280;50746;52.490;13.320;2023-07-02T04:15:46;99870.0;;;36.4;34.3
54314;BME280;50746;52.490;13.320;2023-07-02T04:17:46;99860.0;;;36.3;34.5
54314;BME280;50746;52.490;13.320;2023-07-02T04:20:46;99860.0;;;36.4;34.4
54314;BME280;50746;52.490;13.320;2023-07-02T04:25:46;99860.0;;;36.5;34.3
54314;BME280;50746;52.490;13.320;2023-07-02T04:26:46;99860.0;;;36.4;34.3
54314;BME280;50746;52.490;13.320;2023-07-02T04:30:46;99860.0;;;36.5;34.3
54314;BME280;50746;52.490;13.320;2023-07-02T04:36:46;99860.0;;;36.4;34.3
54314;BME280;50746;52.490;13.320;2023-07-02T04:40:46;99870.0;;;36.5;34.2
54314;BME280;50746;52.490;13.320;2023-07-02T04:42:46;99880.0;;;36.6;34.1
54314;BME280;50746;52.490;13.320;2023-07-02T04:45:46;99890.0;;;36.7;33.9
54314;BME280;50746;52.490;13.320;2023-07-02T04:46:46;99890.0;;;36.5;34.1
54314;BME280;50746;52.490;13.320;2023-07-02T04:47:46;99890.0;;;36.4;34.3
54314;BME280;50746;52.490;13.320;2023-07-02T04:48:46;99890.0;;;36.5;34.2
54314;BME280;50746;52.490;13.320;2023-07-02T04:51:46;99890.0;;;36.6;34.1
54314;BME280;50746;52.490;13.320;2023-07-02T05:01:46;99890.0;;;36.7;33.9
54314;BME280;50746;52.490;13.320;2023-07-02T05:02:46;99890.0;;;36.6;33.9
54314;BME280;50746;52.490;13.320;2023-07-02T05:04:46;99900.0;;;36.7;33.9
54314;BME280;50746;52.490;13.320;2023-07-02T05:05:46;99900.0;;;36.6;33.9
54314;BME280;50746;52.490;13.320;2023-07-02T05:07:46;99900.0;;;36.5;34.0
54314;BME280;50746;52.490;13.320;2023-07-02T05:09:46;99900.0;;;36.7;33.9
54314;BME280;50746;52.490;13.320;2023-07-02T05:10:46;99900.0;;;36.6;33.9
54314;BME280;50746;52.490;13.320;2023-07-02T05:14:46;99900.0;;;36.7;33.7
54314;BME280;50746;52.490;13.320;2023-07-02T05:15:46;99900.0;;;36.8;33.7
54314;BME280;50746;52.490;13.320;2023-07-02T05:16:46;99890.0;;;36.9;33.5
54314;BME280;50746;52.490;13.320;2023-07-02T05:18:46;99900.0;;;37.1;33.3
54314;BME280;50746;52.490;13.320;2023-07-02T05:19:46;99900.0;;;37.2;33.2
54314;BME280;50746;52.490;13.320;2023-07-02T05:20:46;99900.0;;;37.1;33.1
54314;BME280;50746;52.490;13.320;2023-07-02T05:21:46;99910.0;;;37.0;33.3
54314;BME280;50746;52.490;13.320;2023-07-02T05:22:46;99900.0;;;37.1;33.1
54314;BME280;50746;52.490;13.320;2023-07-02T05:23:47;99910.0;;;37.0;33.2
54314;BME280;50746;52.490;13.320;2023-07-02T05:24:46;99900.0;;;37.3;32.9
54314;BME280;50746;52.490;13.320;2023-07-02T05:25:46;99910.0;;;37.1;33.1
54314;BME280;50746;52.490;13.320;2023-07-02T05:27:46;99900.0;;;37.0;33.3
54314;BME280;50746;52.490;13.320;2023-07-02T05:28:46;99910.0;;;37.1;33.1
54314;BME280;50746;52.490;13.320;2023-07-02T05:32:46;99900.0;;;37.2;33.1
54314;BME280;50746;52.490;13.320;2023-07-02T05:33:46;99900.0;;;37.1;33.0
54314;BME280;50746;52.490;13.320;2023-07-02T05:36:46;99920.0;;;37.0;33.2
54314;BME280;50746;52.490;13.320;2023-07-02T05:45:46;99910.0;;;37.2;32.9
54314;BME280;50746;52.490;13.320;2023-07-02T05:46:46;99920.0;;;37.1;33.1
54314;BME280;50746;52.490;13.320;2023-07-02T05:47:46;99910.0;;;37.0;33.1
54314;BME280;50746;52.490;13.320;2023-07-02T05:49:46;99920.0;;;36.9;33.2
54314;BME280;50746;52.490;13.320;2023-07-02T05:50:46;99920.0;;;37.0;33.2
54314;BME280;50746;52.490;13.320;2023-07-02T05:56:46;99930.0;;;36.9;33.1
54314;BME280;50746;52.490;13.320;2023-07-02T06:00:46;99930.0;;;37.0;33.2
54314;BME280;50746;52.490;13.320;2023-07-02T06:03:49;99930.0;;;36.9;33.1
54314;BME280;50746;52.490;13.320;2023-07-02T06:08:46;99930.0;;;37.0;33.1
54314;BME280;50746;52.490;13.320;2023-07-02T06:10:47;99930.0;;;36.9;33.2
54314;BME280;50746;52.490;13.320;2023-07-02T06:11:46;99920.0;;;37.1;33.1
54314;BME280;50746;52.490;13.320;2023-07-02T06:12:46;99920.0;;;37.0;33.1
54314;BME280;50746;52.490;13.320;2023-07-02T06:16:46;99920.0;;;36.9;33.1
54314;BME280;50746;52.490;13.320;2023-07-02T06:17:46;99920.0;;;36.8;33.2
54314;BME280;50746;52.490;13.320;2023-07-02T06:18:46;99930.0;;;36.9;33.1
54314;BME280;50746;52.490;13.320;2023-07-02T06:20:46;99930.0;;;37.0;33.1
54314;BME280;50746;52.490;13.320;2023-07-02T06:22:46;99930.0;;;37.1;32.8
54314;BME280;50746;52.490;13.320;2023-07-02T06:25:46;99920.0;;;37.2;32.8
54314;BME280;50746;52.490;13.320;2023-07-02T06:26:46;99920.0;;;37.1;32.8
54314;BME280;50746;52.490;13.320;2023-07-02T06:27:47;99920.0;;;37.0;33.0
54314;BME280;50746;52.490;13.320;2023-07-02T06:37:47;99900.0;;;36.9;33.0
54314;BME280;50746;52.490;13.320;2023-07-02T06:38:46;99900.0;;;37.0;33.0
54314;BME280;50746;52.490;13.320;2023-07-02T06:39:46;99910.0;;;37.1;32.9
54314;BME280;50746;52.490;13.320;2023-07-02T06:42:46;99930.0;;;37.3;32.6
54314;BME280;50746;52.490;13.320;2023-07-02T06:43:46;99920.0;;;37.2;32.6
54314;BME280;50746;52.490;13.320;2023-07-02T06:44:46;99920.0;;;37.3;32.5
54314;BME280;50746;52.490;13.320;2023-07-02T06:47:46;99930.0;;;37.0;32.8
54314;BME280;50746;52.490;13.320;2023-07-02T06:49:46;99920.0;;;37.1;32.7
54314;BME280;50746;52.490;13.320;2023-07-02T06:50:46;99920.0;;;37.2;32.7
54314;BME280;50746;52.490;13.320;2023-07-02T06:51:46;99930.0;;;37.4;32.4
54314;BME280;50746;52.490;13.320;2023-07-02T06:52:46;99920.0;;;37.5;32.3
54314;BME280;50746;52.490;13.320;2023-07-02T06:53:46;99910.0;;;37.4;32.3
54314;BME280;50746;52.490;13.320;2023-07-02T06:54:46;99910.0;;;37.3;32.4
54314;BME280;50746;52.490;13.320;2023-07-02T06:55:46;99920.0;;;37.2;32.5
54314;BME280;50746;52.490;13.320;2023-07-02T06:58:46;99920.0;;;37.4;32.4
54314;BME280;50746;52.490;13.320;2023-07-02T06:59:46;99920.0;;;37.5;32.2
54314;BME280;50746;52.490;13.320;2023-07-02T07:00:46;99920.0;;;37.3;32.4
54314;BME280;50746;52.490;13.320;2023-07-02T07:02:46;99920.0;;;37.4;32.5
54314;BME280;50746;52.490;13.320;2023-07-02T07:03:46;99920.0;;;37.5;32.2
54314;BME280;50746;52.490;13.320;2023-07-02T07:04:46;99920.0;;;37.3;32.4
54314;BME280;50746;52.490;13.320;2023-07-02T07:05:46;99920.0;;;37.2;32.4
54314;BME280;50746;52.490;13.320;2023-07-02T07:07:46;99920.0;;;37.4;32.3
54314;BME280;50746;52.490;13.320;2023-07-02T07:08:46;99930.0;;;37.3;32.4
54314;BME280;50746;52.490;13.320;2023-07-02T07:10:46;99930.0;;;37.4;32.3
54314;BME280;50746;52.490;13.320;2023-07-02T07:12:46;99920.0;;;37.3;32.3
54314;BME280;50746;52.490;13.320;2023-07-02T07:15:46;99940.0;;;37.2;32.4
54314;BME280;50746;52.490;13.320;2023-07-02T07:17:46;99940.0;;;37.1;32.5
54314;BME280;50746;52.490;13.320;2023-07-02T07:18:46;99930.0;;;37.2;32.3
54314;BME280;50746;52.490;13.320;2023-07-02T07:21:46;99930.0;;;37.3;32.3
54314;BME280;50746;52.490;13.320;2023-07-02T07:26:46;99940.0;;;37.4;32.3
54314;BME280;50746;52.490;13.320;2023-07-02T07:27:46;99940.0;;;36.9;32.6
54314;BME280;50746;52.490;13.320;2023-07-02T07:28:46;99940.0;;;36.8;32.8
54314;BME280;50746;52.490;13.320;2023-07-02T07:29:46;99930.0;;;37.0;32.6
54314;BME280;50746;52.490;13.320;2023-07-02T07:30:46;99940.0;;;36.9;32.7
54314;BME280;50746;52.490;13.320;2023-07-02T07:32:46;99930.0;;;37.1;32.6
54314;BME280;50746;52.490;13.320;2023-07-02T07:33:46;99930.0;;;37.0;32.7
54314;BME280;50746;52.490;13.320;2023-07-02T07:35:46;99930.0;;;37.1;32.6
54314;BME280;50746;52.490;13.320;2023-07-02T07:36:46;99930.0;;;37.0;32.7
54314;BME280;50746;52.490;13.320;2023-07-02T07:39:46;99920.0;;;37.1;32.7
54314;BME280;50746;52.490;13.320;2023-07-02T07:46:46;99950.0;;;36.9;32.7
54314;BME280;50746;52.490;13.320;2023-07-02T07:47:46;99950.0;;;37.0;32.8
54314;BME280;50746;52.490;13.320;2023-07-02T07:49:46;99950.0;;;36.9;32.8
54314;BME280;50746;52.490;13.320;2023-07-02T07:52:47;99950.0;;;37.0;32.8
54314;BME280;50746;52.490;13.320;2023-07-02T07:55:46;99950.0;;;36.9;32.7
54314;BME280;50746;52.490;13.320;2023-07-02T07:57:46;99960.0;;;36.8;33.0
54314;BME280;50746;52.490;13.320;2023-07-02T07:59:46;99960.0;;;36.9;32.8
54314;BME280;50746;52.490;13.320;2023-07-02T08:06:46;99970.0;;;36.8;32.9
54314;BME280;50746;52.490;13.320;2023-07-02T08:10:46;99970.0;;;36.9;32.8
54314;BME280;50746;52.490;13.320;2023-07-02T08:11:46;99980.0;;;36.8;32.9
54314;BME280;50746;52.490;13.320;2023-07-02T08:12:46;99980.0;;;36.9;32.8
54314;BME280;50746;52.490;13.320;2023-07-02T08:13:46;99980.0;;;37.0;32.7
54314;BME280;50746;52.490;13.320;2023-07-02T08:14:46;99980.0;;;36.9;32.7
54314;BME280;50746;52.490;13.320;2023-07-02T08:16:46;99970.0;;;36.8;32.8
54314;BME280;50746;52.490;13.320;2023-07-02T08:19:47;99960.0;;;36.7;32.9
54314;BME280;50746;52.490;13.320;2023-07-02T08:20:46;99960.0;;;36.4;33.3
54314;BME280;50746;52.490;13.320;2023-07-02T08:22:46;99960.0;;;36.5;33.3
54314;BME280;50746;52.490;13.320;2023-07-02T08:23:46;99960.0;;;36.4;33.5
54314;BME280;50746;52.490;13.320;2023-07-02T08:24:46;99960.0;;;36.6;33.3
54314;BME280;50746;52.490;13.320;2023-07-02T08:26:46;99970.0;;;36.5;33.4
54314;BME280;50746;52.490;13.320;2023-07-02T08:30:46;99970.0;;;36.7;33.1
54314;BME280;50746;52.490;13.320;2023-07-02T08:33:46;99970.0;;;36.8;33.0
54314;BME280;50746;52.490;13.320;2023-07-02T08:34:46;99970.0;;;37.0;32.8
54314;BME280;50746;52.490;13.320;2023-07-02T08:36:46;99970.0;;;36.9;32.7
54314;BME280;50746;52.490;13.320;2023-07-02T08:37:46;99970.0;;;36.8;32.9
54314;BME280;50746;52.490;13.320;2023-07-02T08:39:48;99970.0;;;36.9;32.8
54314;BME280;50746;52.490;13.320;2023-07-02T08:43:46;99980.0;;;36.8;32.7
54314;BME280;50746;52.490;13.320;2023-07-02T08:44:47;99980.0;;;36.7;32.9
54314;BME280;50746;52.490;13.320;2023-07-02T08:45:46;99970.0;;;36.5;33.2
54314;BME280;50746;52.490;13.320;2023-07-02T08:46:46;99970.0;;;36.4;33.3
54314;BME280;50746;52.490;13.320;2023-07-02T08:47:46;99970.0;;;36.3;33.5
54314;BME280;50746;52.490;13.320;2023-07-02T08:48:46;99970.0;;;36.4;33.5
54314;BME280;50746;52.490;13.320;2023-07-02T08:49:47;99980.0;;;36.6;33.3
54314;BME280;50746;52.490;13.320;2023-07-02T08:50:47;99970.0;;;36.5;33.4
54314;BME280;50746;52.490;13.320;2023-07-02T08:53:46;99970.0;;;36.4;33.4
54314;BME280;50746;52.490;13.320;2023-07-02T08:54:46;99980.0;;;36.5;33.4
54314;BME280;50746;52.490;13.320;2023-07-02T08:56:46;99980.0;;;36.7;33.1
54314;BME280;50746;52.490;13.320;2023-07-02T08:57:51;99980.0;;;36.5;33.3
54314;BME280;50746;52.490;13.320;2023-07-02T08:58:46;99980.0;;;36.4;33.3
54314;BME280;50746;52.490;13.320;2023-07-02T08:59:46;99980.0;;;36.5;33.2
54314;BME280;50746;52.490;13.320;2023-07-02T09:01:05;99980.0;;;36.6;33.2
54314;BME280;50746;52.490;13.320;2023-07-02T09:02:46;99990.0;;;36.8;32.9
54314;BME280;50746;52.490;13.320;2023-07-02T09:03:46;99990.0;;;37.0;32.6
54314;BME280;50746;52.490;13.320;2023-07-02T09:04:46;99990.0;;;37.1;32.5
54314;BME280;50746;52.490;13.320;2023-07-02T09:05:47;99990.0;;;37.4;32.2
54314;BME280;50746;52.490;13.320;2023-07-02T09:06:47;99990.0;;;37.2;32.2
54314;BME280;50746;52.490;13.320;2023-07-02T09:07:47;99990.0;;;37.1;32.4
54314;BME280;50746;52.490;13.320;2023-07-02T09:08:46;99990.0;;;37.0;32.4
54314;BME280;50746;52.490;13.320;2023-07-02T09:09:47;99990.0;;;36.9;32.6
54314;BME280;50746;52.490;13.320;2023-07-02T09:12:46;99990.0;;;37.0;32.6
54314;BME280;50746;52.490;13.320;2023-07-02T09:18:56;100000.0;;;37.1;32.3
54314;BME280;50746;52.490;13.320;2023-07-02T09:20:49;100000.0;;;37.3;31.9
54314;BME280;50746;52.490;13.320;2023-07-02T09:21:48;100000.0;;;37.2;31.7
54314;BME280;50746;52.490;13.320;2023-07-02T09:22:53;100000.0;;;37.3;31.7
54314;BME280;50746;52.490;13.320;2023-07-02T09:24:51;100000.0;;;37.1;32.1
54314;BME280;50746;52.490;13.320;2023-07-02T09:25:46;100000.0;;;37.0;32.2
54314;BME280;50746;52.490;13.320;2023-07-02T09:26:47;100010.0;;;36.8;32.4
54314;BME280;50746;52.490;13.320;2023-07-02T09:28:46;100010.0;;;36.9;32.4
54314;BME280;50746;52.490;13.320;2023-07-02T09:31:46;100000.0;;;37.0;32.3
54314;BME280;50746;52.490;13.320;2023-07-02T09:32:46;100010.0;;;37.1;32.1
54314;BME280;50746;52.490;13.320;2023-07-02T09:33:49;100010.0;;;37.4;31.9
54314;BME280;50746;52.490;13.320;2023-07-02T09:34:46;100000.0;;;37.2;31.9
54314;BME280;50746;52.490;13.320;2023-07-02T09:36:46;100010.0;;;37.1;32.2
54314;BME280;50746;52.490;13.320;2023-07-02T09:37:46;100000.0;;;37.0;32.1
54314;BME280;50746;52.490;13.320;2023-07-02T09:38:46;100000.0;;;37.1;32.1
54314;BME280;50746;52.490;13.320;2023-07-02T09:40:49;100000.0;;;37.0;32.2
54314;BME280;50746;52.490;13.320;2023-07-02T09:42:46;100010.0;;;37.1;32.1
54314;BME280;50746;52.490;13.320;2023-07-02T09:43:46;100010.0;;;37.0;32.2
54314;BME280;50746;52.490;13.320;2023-07-02T09:55:46;99990.0;;;36.9;32.0
54314;BME280;50746;52.490;13.320;2023-07-02T09:58:46;100000.0;;;37.0;31.9
54314;BME280;50746;52.490;13.320;2023-07-02T09:59:46;99990.0;;;37.1;31.9
54314;BME280;50746;52.490;13.320;2023-07-02T10:00:46;100000.0;;;37.0;31.9
54314;BME280;50746;52.490;13.320;2023-07-02T10:05:46;99990.0;;;37.1;31.9
54314;BME280;50746;52.490;13.320;2023-07-02T10:06:47;99990.0;;;36.9;31.9
54314;BME280;50746;52.490;13.320;2023-07-02T10:08:54;100000.0;;;37.0;32.0
54314;BME280;50746;52.490;13.320;2023-07-02T10:10:46;100000.0;;;36.9;31.8
54314;BME280;50746;52.490;13.320;2023-07-02T10:11:46;99990.0;;;37.0;31.9
54314;BME280;50746;52.490;13.320;2023-07-02T10:12:46;100000.0;;;36.9;31.8
54314;BME280;50746;52.490;13.320;2023-07-02T10:13:57;99990.0;;;37.0;31.8
54314;BME280;50746;52.490;13.320;2023-07-02T10:16:49;99990.0;;;36.9;31.9
54314;BME280;50746;52.490;13.320;2023-07-02T10:17:54;99990.0;;;37.0;31.9
54314;BME280;50746;52.490;13.320;2023-07-02T10:18:46;99990.0;;;37.1;31.8
54314;BME280;50746;52.490;13.320;2023-07-02T10:21:47;100000.0;;;37.0;31.9
54314;BME280;50746;52.490;13.320;2023-07-02T10:26:54;100000.0;;;36.8;32.1
54314;BME280;50746;52.490;13.320;2023-07-02T10:28:56;99990.0;;;36.9;32.2
54314;BME280;50746;52.490;13.320;2023-07-02T10:32:46;99990.0;;;37.0;31.8
54314;BME280;50746;52.490;13.320;2023-07-02T10:33:47;99980.0;;;37.1;31.9
54314;BME280;50746;52.490;13.320;2023-07-02T10:36:46;99990.0;;;36.9;32.0
54314;BME280;50746;52.490;13.320;2023-07-02T10:38:47;99980.0;;;37.2;31.6
54314;BME280;50746;52.490;13.320;2023-07-02T10:41:46;99980.0;;;37.4;31.3
54314;BME280;50746;52.490;13.320;2023-07-02T10:42:47;99980.0;;;37.5;31.1
54314;BME280;50746;52.490;13.320;2023-07-02T10:43:46;99980.0;;;37.4;31.1
54314;BME280;50746;52.490;13.320;2023-07-02T10:45:46;100000.0;;;37.5;31.1
54314;BME280;50746;52.490;13.320;2023-07-02T10:46:47;99980.0;;;37.4;31.2
54314;BME280;50746;52.490;13.320;2023-07-02T10:47:46;99980.0;;;37.5;31.2
54314;BME280;50746;52.490;13.320;2023-07-02T10:49:46;99990.0;;;37.6;31.0
54314;BME280;50746;52.490;13.320;2023-07-02T10:50:46;99990.0;;;37.5;31.1
54314;BME280;50746;52.490;13.320;2023-07-02T10:53:46;99980.0;;;37.4;31.2
54314;BME280;50746;52.490;13.320;2023-07-02T10:56:46;100000.0;;;37.3;31.3
54314;BME280;50746;52.490;13.320;2023-07-02T11:02:46;99970.0;;;37.4;31.3
54314;BME280;50746;52.490;13.320;2023-07-02T11:03:55;99970.0;;;37.5;31.1
54314;BME280;50746;52.490;13.320;2023-07-02T11:04:46;99980.0;;;37.3;31.2
54314;BME280;50746;52.490;13.320;2023-07-02T11:05:47;99980.0;;;37.5;31.0
54314;BME280;50746;52.490;13.320;2023-07-02T11:06:47;99970.0;;;37.4;31.0
54314;BME280;50746;52.490;13.320;2023-07-02T11:07:46;99980.0;;;37.5;31.1
54314;BME280;50746;52.490;13.320;2023-07-02T11:08:46;99980.0;;;37.4;30.9
54314;BME280;50746;52.490;13.320;2023-07-02T11:09:49;99990.0;;;37.5;31.0
54314;BME280;50746;52.490;13.320;2023-07-02T11:11:50;99990.0;;;37.3;30.4
54314;BME280;50746;52.490;13.320;2023-07-02T11:12:46;99990.0;;;37.2;30.7
54314;BME280;50746;52.490;13.320;2023-07-02T11:13:47;99990.0;;;37.3;30.8
54314;BME280;50746;52.490;13.320;2023-07-02T11:14:46;100000.0;;;37.2;31.0
54314;BME280;50746;52.490;13.320;2023-07-02T11:15:46;100010.0;;;37.3;30.9
54314;BME280;50746;52.490;13.320;2023-07-02T11:17:46;100000.0;;;37.2;31.0
54314;BME280;50746;52.490;13.320;2023-07-02T11:19:50;100010.0;;;37.3;30.9
54314;BME280;50746;52.490;13.320;2023-07-02T11:21:51;100010.0;;;37.4;30.4
54314;BME280;50746;52.490;13.320;2023-07-02T11:24:46;100010.0;;;37.5;30.4
54314;BME280;50746;52.490;13.320;2023-07-02T11:25:54;100010.0;;;37.4;30.5
54314;BME280;50746;52.490;13.320;2023-07-02T11:26:46;100010.0;;;37.2;30.8
54314;BME280;50746;52.490;13.320;2023-07-02T11:27:46;100010.0;;;37.3;30.6
54314;BME280;50746;52.490;13.320;2023-07-02T11:28:48;100030.0;;;37.4;30.7
54314;BME280;50746;52.490;13.320;2023-07-02T11:33:46;100020.0;;;37.5;30.3
54314;BME280;50746;52.490;13.320;2023-07-02T11:34:52;100030.0;;;37.6;30.4
54314;BME280;50746;52.490;13.320;2023-07-02T11:36:46;100020.0;;;37.5;30.3
54314;BME280;50746;52.490;13.320;2023-07-02T11:37:47;100030.0;;;37.6;30.3
54314;BME280;50746;52.490;13.320;2023-07-02T11:38:46;100030.0;;;37.5;30.2
54314;BME280;50746;52.490;13.320;2023-07-02T11:40:46;100010.0;;;37.2;30.3
54314;BME280;50746;52.490;13.320;2023-07-02T11:41:47;100030.0;;;37.1;30.7
54314;BME280;50746;52.490;13.320;2023-07-02T11:42:46;100040.0;;;37.2;30.7
54314;BME280;50746;52.490;13.320;2023-07-02T11:43:47;100020.0;;;37.0;30.6
54314;BME280;50746;52.490;13.320;2023-07-02T11:44:46;100010.0;;;37.2;30.6
54314;BME280;50746;52.490;13.320;2023-07-02T11:45:46;100020.0;;;37.3;30.5
54314;BME280;50746;52.490;13.320;2023-07-02T11:46:47;100020.0;;;37.2;30.7
54314;BME280;50746;52.490;13.320;2023-07-02T11:48:46;100020.0;;;37.1;30.6
54314;BME280;50746;52.490;13.320;2023-07-02T11:50:46;100020.0;;;37.3;30.6
54314;BME280;50746;52.490;13.320;2023-07-02T11:51:46;100030.0;;;37.4;30.6
54314;BME280;50746;52.490;13.320;2023-07-02T11:52:46;100020.0;;;37.3;30.3
54314;BME280;50746;52.490;13.320;2023-07-02T11:53:46;100030.0;;;37.4;30.4